Gaylord, MI (49735)

2:24 AM EST on November 23, 2014 (GMT -0500)
Castlewood Drive | Change Station
CLOSE
Current Station
Personal Weather Station
Location: Gaylord, MI
Elevation: 1315 ft
Nearby Weather Stations

Elev 1315 ft 44.99 °N, 84.66 °W | Updated 2 minutes ago

Overcast
Overcast
36.3 °F
Feels Like 36 °F
N
0.0
Wind Variable Wind from West
Gusts 0.0 mph

Today
High -- | Low -- °F
--% Chance of Precip.
Yesterday
High -- | Low -- °F
Precip. -- in
7:46 AM 5:02 PM
New Moon, 1% visible
Pressure 29.84 in
Visibility 6.0 miles
Clouds Overcast 1300 ft
Windchill 36 °F
Dew Point 36 °F
Humidity 97%
Rainfall 0.05 in
Snow Depth Not available.
UV 0.0 out of 12
Pollen .10 out of 12
Air Quality Not available.
Flu Activity Not available.
METAR KGLR 230653Z AUTO 20003KT 6SM BR OVC013 03/02 A2980 RMK AO2 SLP104 T00280022

More Conditions Fewer Conditions

Pressure 29.84 in
Visibility 6.0 miles
Clouds Overcast 1300 ft
Windchill 36 °F
Dew Point 36 °F
Humidity 97%
Rainfall 0.05 in
Snow Depth Not available.
UV 0.0 out of 12
Pollen .10 out of 12
Air Quality Not available.
Flu Activity Not available.
METAR KGLR 230653Z AUTO 20003KT 6SM BR OVC013 03/02 A2980 RMK AO2 SLP104 T00280022

More Conditions Fewer Conditions

Nowcast | as of 2:00 am EST on November 23, 2014

At 3 am...cloudy. Areas of dense fog. Areas of drizzle. Temperature 39. South winds 8 mph. At 5 am...cloudy. Areas of dense fog. Areas of drizzle. Temperature 40. South winds 9 mph. At 7 am...areas of fog. Occasional rain or drizzle. Temperature 41. South winds 10 mph. Areas of fog. Occasional rain or drizzle. South winds 12 mph.

×

10-Day Weather Forecast

Almanac

Astronomy

Nov. 23, 2014 Rise Set
Actual Time
Civil Twilight
Nautical Twilight
Astronomical Twilight
Moon
Length of Visible Light
Length of Day
Tomorrow will be .
, % of the Moon is Illuminated

Today's Extremes

State Highs State Lows

Community

WunderPhotos

Upload Photos

1,773,024 photos uploaded!

WunderBlogs® & News

Nearby

Air Quality

  Air Quality AQ Index Pollutant
Not available.

Snow Depth

Station Depth Elevation

Earthquake Activity

City Distance Mag. Time & Date
Minimum magnitude displayed is 2.5.

Coastal Water Temperatures

Place Temperature

Nearby Weather Stations